createdAt,value
2023-03-24T00:00:41.044Z,98978.72
2023-03-24T00:03:10.815Z,98963.94
2023-03-24T00:05:38.724Z,99002.13
2023-03-24T00:08:06.676Z,99015.00
2023-03-24T00:10:37.063Z,99040.06
2023-03-24T00:13:06.027Z,99031.44
2023-03-24T00:15:34.413Z,99027.09
2023-03-24T00:18:02.256Z,99023.63
2023-03-24T00:20:32.986Z,99001.19
2023-03-24T00:23:00.809Z,99045.34
2023-03-24T00:25:33.828Z,99039.34
2023-03-24T00:28:01.803Z,99029.75
2023-03-24T00:30:31.597Z,99040.06
2023-03-24T00:33:02.005Z,99015.13
2023-03-24T00:35:31.173Z,99014.38
2023-03-24T00:37:58.900Z,98982.44
2023-03-24T00:40:28.079Z,99028.06
2023-03-24T00:42:55.803Z,99044.53
2023-03-24T00:45:25.447Z,99045.34
2023-03-24T00:47:54.916Z,99010.16
2023-03-24T00:50:27.019Z,99008.25
2023-03-24T00:53:02.129Z,98992.88
2023-03-24T00:55:29.865Z,98977.88
2023-03-24T00:57:57.719Z,98985.81
2023-03-24T01:00:27.468Z,99004.03
2023-03-24T01:02:59.279Z,98986.63
2023-03-24T01:05:30.216Z,98988.44
2023-03-24T01:07:58.684Z,98982.31
2023-03-24T01:10:28.414Z,98990.38
2023-03-24T01:12:59.192Z,98963.38
2023-03-24T01:15:29.628Z,98974.53
2023-03-24T01:17:58.085Z,98946.34
2023-03-24T01:20:26.575Z,98941.66
2023-03-24T01:22:54.729Z,98978.13
2023-03-24T01:25:24.263Z,98975.34
2023-03-24T01:27:54.042Z,98999.59
2023-03-24T01:30:23.884Z,99005.72
2023-03-24T01:32:53.135Z,98985.81
2023-03-24T01:35:22.460Z,99004.03
2023-03-24T01:37:50.876Z,98999.84
2023-03-24T01:40:21.488Z,98994.44
2023-03-24T01:42:49.444Z,99003.19
2023-03-24T01:45:56.729Z,99012.69
2023-03-24T01:48:27.946Z,98986.75
2023-03-24T01:51:00.563Z,98989.28
2023-03-24T01:53:29.757Z,98971.16
2023-03-24T01:55:57.569Z,98968.66
2023-03-24T01:58:29.257Z,98955.81
2023-03-24T02:00:59.038Z,98945.50
2023-03-24T02:03:30.209Z,98923.28
2023-03-24T02:05:58.697Z,98941.91
2023-03-24T02:08:32.832Z,98961.94
2023-03-24T02:11:03.001Z,98931.56
2023-03-24T02:13:30.747Z,98955.81
2023-03-24T02:16:10.224Z,98933.25
2023-03-24T02:18:47.699Z,98927.25
2023-03-24T02:21:48.118Z,98922.22
2023-03-24T02:24:53.036Z,98900.38
2023-03-24T02:27:39.055Z,98892.81
2023-03-24T02:30:27.625Z,98890.28
2023-03-24T02:33:31.800Z,98833.47
2023-03-24T02:36:34.419Z,98765.22
2023-03-24T02:39:52.933Z,98729.97
2023-03-24T02:42:36.511Z,98644.66
2023-03-24T02:45:17.953Z,98686.09
2023-03-24T02:47:54.154Z,98712.84
2023-03-24T02:50:30.678Z,98734.19
2023-03-24T02:53:07.468Z,98744.75
2023-03-24T02:55:41.710Z,98768.00
2023-03-24T02:58:16.876Z,98814.53
2023-03-24T03:00:48.553Z,98814.75
2023-03-24T03:03:21.972Z,98820.63
2023-03-24T03:05:55.072Z,98846.28
2023-03-24T03:08:24.408Z,98836.81
2023-03-24T03:10:55.689Z,98840.41
2023-03-24T03:13:31.941Z,98848.09
2023-03-24T03:16:05.704Z,98842.94
2023-03-24T03:18:40.439Z,98868.84
2023-03-24T03:21:13.330Z,98868.84
2023-03-24T03:23:44.448Z,98864.50
2023-03-24T03:26:16.721Z,98871.34
2023-03-24T03:28:51.349Z,98874.94
2023-03-24T03:31:23.853Z,98851.56
2023-03-24T03:33:59.422Z,98849.88
2023-03-24T03:36:32.077Z,98840.41
2023-03-24T03:39:08.186Z,98845.69
2023-03-24T03:41:38.639Z,98843.91
2023-03-24T03:44:06.911Z,98805.91
2023-03-24T03:46:36.629Z,98831.06
2023-03-24T03:49:05.755Z,98832.63
2023-03-24T03:51:34.360Z,98850.72
2023-03-24T03:54:04.900Z,98823.28
2023-03-24T03:56:36.469Z,98829.16
2023-03-24T03:59:06.250Z,98843.91
2023-03-24T04:01:37.604Z,98825.78
2023-03-24T04:04:38.106Z,98843.91
2023-03-24T04:07:13.860Z,98834.56
2023-03-24T04:09:56.370Z,98821.47
2023-03-24T04:12:50.459Z,98844.03
2023-03-24T04:15:36.025Z,98825.09
2023-03-24T04:18:29.437Z,98822.44
2023-03-24T04:21:15.624Z,98821.59
2023-03-24T04:23:54.392Z,98782.84
2023-03-24T04:26:28.764Z,98791.50
2023-03-24T04:29:09.383Z,98785.25
2023-03-24T04:31:44.369Z,98784.53
2023-03-24T04:34:20.782Z,98784.53
2023-03-24T04:36:54.433Z,98785.38
2023-03-24T04:39:28.287Z,98774.94
2023-03-24T04:41:58.698Z,98788.59
2023-03-24T04:44:28.021Z,98783.56
2023-03-24T04:47:00.435Z,98773.16
2023-03-24T04:49:28.291Z,98768.94
2023-03-24T04:51:56.772Z,98782.84
2023-03-24T04:54:24.888Z,98757.69
2023-03-24T04:56:54.144Z,98732.03
2023-03-24T04:59:22.112Z,98742.09
2023-03-24T05:01:50.868Z,98759.63
2023-03-24T05:04:22.100Z,98781.91
2023-03-24T05:06:50.095Z,98760.31
2023-03-24T05:09:21.360Z,98762.97
2023-03-24T05:11:49.789Z,98776.03
2023-03-24T05:14:18.250Z,98771.59
2023-03-24T05:16:46.217Z,98780.22
2023-03-24T05:19:14.252Z,98778.53
2023-03-24T05:21:43.409Z,98796.78
2023-03-24T05:24:12.453Z,98821.72
2023-03-24T05:26:40.179Z,98839.84
2023-03-24T05:29:08.043Z,98852.66
2023-03-24T05:31:35.803Z,98895.69
2023-03-24T05:34:03.647Z,98921.50
2023-03-24T05:36:31.384Z,98923.41
2023-03-24T05:39:00.927Z,98927.84
2023-03-24T05:41:28.703Z,98939.88
2023-03-24T05:43:56.563Z,98941.69
2023-03-24T05:46:26.424Z,98934.59
2023-03-24T05:48:54.568Z,98918.13
2023-03-24T05:51:22.671Z,98928.69
2023-03-24T05:53:52.099Z,98959.66
2023-03-24T05:56:21.438Z,98966.75
2023-03-24T05:58:49.260Z,98993.50
2023-03-24T06:01:18.301Z,99012.34
2023-03-24T06:03:46.251Z,99026.38
2023-03-24T06:06:16.825Z,99032.25
2023-03-24T06:08:46.015Z,99084.03
2023-03-24T06:11:14.221Z,99119.44
2023-03-24T06:13:44.731Z,99159.31
2023-03-24T06:16:12.924Z,99166.28
2023-03-24T06:18:42.751Z,99188.53
2023-03-24T06:21:10.746Z,99203.31
2023-03-24T06:23:38.986Z,99230.09
2023-03-24T06:26:10.681Z,99276.00
2023-03-24T06:28:39.821Z,99300.94
2023-03-24T06:31:18.603Z,99296.47
2023-03-24T06:33:46.770Z,99325.22
2023-03-24T06:36:15.725Z,99307.91
2023-03-24T06:38:45.768Z,99299.25
2023-03-24T06:41:13.894Z,99250.06
2023-03-24T06:43:41.627Z,99251.84
2023-03-24T06:46:11.258Z,99282.97
2023-03-24T06:48:39.754Z,99277.69
2023-03-24T06:51:08.323Z,99248.63
2023-03-24T06:53:37.797Z,99250.06
2023-03-24T06:56:06.272Z,99272.66
2023-03-24T06:58:35.063Z,99334.94
2023-03-24T07:01:03.122Z,99407.38
2023-03-24T07:03:33.234Z,99499.03
2023-03-24T07:06:01.415Z,99504.34
2023-03-24T07:08:37.209Z,99468.47
2023-03-24T07:11:08.712Z,99526.75
2023-03-24T07:13:38.178Z,99571.16
2023-03-24T07:16:06.993Z,99571.78
2023-03-24T07:18:37.152Z,99571.91
2023-03-24T07:21:05.236Z,99520.00
2023-03-24T07:23:33.192Z,99497.34
2023-03-24T07:26:01.206Z,99481.13
2023-03-24T07:28:28.972Z,99472.31
2023-03-24T07:30:56.971Z,99530.47
2023-03-24T07:33:25.291Z,99526.16
2023-03-24T07:35:57.413Z,99464.63
2023-03-24T07:38:25.531Z,99450.69
2023-03-24T07:40:53.404Z,99415.44
2023-03-24T07:43:21.908Z,99424.53
2023-03-24T07:45:49.966Z,99411.94
2023-03-24T07:48:18.035Z,99439.59
2023-03-24T07:50:46.080Z,99472.56
2023-03-24T07:53:19.983Z,99515.56
2023-03-24T07:55:48.441Z,99546.97
2023-03-24T07:58:16.864Z,99601.38
2023-03-24T08:00:44.985Z,99623.19
2023-03-24T08:03:15.442Z,99667.28
2023-03-24T08:05:44.180Z,99750.47
2023-03-24T08:08:12.060Z,99750.47
2023-03-24T08:10:42.675Z,99711.50
2023-03-24T08:13:10.513Z,99695.13
2023-03-24T08:15:39.040Z,99722.84
2023-03-24T08:18:07.060Z,99701.25
2023-03-24T08:20:35.183Z,99632.94
2023-03-24T08:23:04.824Z,99696.09
2023-03-24T08:25:33.176Z,99723.56
2023-03-24T08:28:02.370Z,99807.03
2023-03-24T08:30:30.635Z,99793.03
2023-03-24T08:33:00.967Z,99783.88
2023-03-24T08:35:31.550Z,99783.41
2023-03-24T08:38:01.192Z,99791.69
2023-03-24T08:40:31.846Z,99818.97
2023-03-24T08:43:03.306Z,99862.47
2023-03-24T08:45:33.649Z,99895.44
2023-03-24T08:48:06.144Z,99901.47
2023-03-24T08:50:38.192Z,99907.50
2023-03-24T08:53:06.097Z,99903.28
2023-03-24T08:55:34.599Z,99894.59
2023-03-24T08:58:03.838Z,99905.94
2023-03-24T09:00:31.660Z,99901.59
2023-03-24T09:03:01.344Z,99901.34
2023-03-24T09:05:43.569Z,99929.34
2023-03-24T09:08:12.526Z,99901.59
2023-03-24T09:10:42.772Z,99910.28
2023-03-24T09:13:11.898Z,99945.75
2023-03-24T09:15:40.089Z,99972.75
2023-03-24T09:18:10.489Z,100037.97
2023-03-24T09:20:38.271Z,100070.06
2023-03-24T09:23:06.530Z,100066.47
2023-03-24T09:25:34.346Z,100052.69
2023-03-24T09:28:02.510Z,100124.38
2023-03-24T09:30:34.004Z,100198.59
2023-03-24T09:33:02.949Z,100246.38
2023-03-24T09:35:31.275Z,100317.78
2023-03-24T09:37:59.324Z,100380.34
2023-03-24T09:40:29.268Z,100477.03
2023-03-24T09:43:01.172Z,100529.25
2023-03-24T09:45:35.038Z,100493.63
2023-03-24T09:48:09.966Z,100459.59
2023-03-24T09:50:43.129Z,100463.94
2023-03-24T09:53:21.398Z,100487.56
2023-03-24T09:55:50.470Z,100448.31
2023-03-24T09:58:20.018Z,100508.31
2023-03-24T10:00:49.505Z,100583.34
2023-03-24T10:03:21.700Z,100703.56
2023-03-24T10:05:54.282Z,100781.22
2023-03-24T10:08:30.694Z,100852.69
2023-03-24T10:11:04.844Z,100879.84
2023-03-24T10:13:45.083Z,100844.91
2023-03-24T10:16:23.428Z,100812.63
2023-03-24T10:19:00.162Z,100652.16
2023-03-24T10:21:31.726Z,100525.94
2023-03-24T10:24:07.798Z,100545.06
2023-03-24T10:26:43.636Z,100585.06
2023-03-24T10:29:22.925Z,100559.97
2023-03-24T10:31:55.478Z,100459.59
2023-03-24T10:34:27.428Z,100474.50
2023-03-24T10:36:57.678Z,100408.28
2023-03-24T10:39:38.057Z,100401.50
2023-03-24T10:42:16.898Z,100348.50
2023-03-24T10:44:45.277Z,100315.25
2023-03-24T10:47:15.887Z,100364.00
2023-03-24T10:49:54.894Z,100347.41
2023-03-24T10:52:24.568Z,100330.00
2023-03-24T10:54:57.545Z,100324.06
2023-03-24T10:57:27.051Z,100365.91
2023-03-24T10:59:57.851Z,100377.81
2023-03-24T11:02:30.623Z,100302.19
2023-03-24T11:05:00.208Z,100224.81
2023-03-24T11:07:33.596Z,100191.84
2023-03-24T11:10:06.397Z,100183.13
2023-03-24T11:12:36.715Z,100145.06
2023-03-24T11:15:21.218Z,100122.47
2023-03-24T11:17:57.277Z,100136.25
2023-03-24T11:20:33.066Z,100156.19
2023-03-24T11:23:03.761Z,100137.09
2023-03-24T11:25:34.546Z,100153.66
2023-03-24T11:28:05.206Z,100160.56
2023-03-24T11:30:37.135Z,100179.75
2023-03-24T11:33:07.274Z,100171.03
2023-03-24T11:35:41.835Z,100173.47
2023-03-24T11:38:17.496Z,100289.03
2023-03-24T11:40:54.807Z,100347.31
2023-03-24T11:43:23.121Z,100364.84
2023-03-24T11:46:00.067Z,100484.06
2023-03-24T11:48:40.482Z,100501.47
2023-03-24T11:51:12.508Z,100533.81
2023-03-24T11:53:45.671Z,100504.91
2023-03-24T11:56:19.046Z,100433.44
2023-03-24T11:58:50.964Z,100355.28
2023-03-24T12:01:28.520Z,100151.72
2023-03-24T12:04:16.362Z,100006.06
2023-03-24T12:06:56.808Z,99903.50
2023-03-24T12:09:32.484Z,99876.59
2023-03-24T12:12:17.675Z,99846.78
2023-03-24T12:15:20.664Z,99848.00
2023-03-24T12:18:05.852Z,99797.84
2023-03-24T12:20:38.879Z,99729.22
2023-03-24T12:23:14.129Z,99696.31
2023-03-24T12:25:58.342Z,99642.56
2023-03-24T12:28:52.739Z,99648.59
2023-03-24T12:31:59.929Z,99537.78
2023-03-24T12:34:59.379Z,99485.66
2023-03-24T12:37:41.237Z,99497.09
2023-03-24T12:40:35.899Z,99426.94
2023-03-24T12:43:16.268Z,99412.25
2023-03-24T12:45:49.482Z,99401.06
2023-03-24T12:48:42.052Z,99383.75
2023-03-24T12:51:22.189Z,99332.66
2023-03-24T12:54:06.453Z,99342.16
2023-03-24T12:56:39.027Z,99285.88
2023-03-24T12:59:14.620Z,99262.56
2023-03-24T13:01:44.641Z,99251.63
2023-03-24T13:04:17.036Z,99257.50
2023-03-24T13:06:49.907Z,99192.59
2023-03-24T13:09:33.384Z,99152.00
2023-03-24T13:12:06.843Z,99144.31
2023-03-24T13:14:50.732Z,99093.41
2023-03-24T13:17:22.872Z,99055.69
2023-03-24T13:19:52.721Z,99023.41
2023-03-24T13:22:24.256Z,99003.59
2023-03-24T13:24:56.283Z,98958.69
2023-03-24T13:27:25.830Z,98956.06
2023-03-24T13:30:09.322Z,98953.66
2023-03-24T13:32:42.252Z,98926.66
2023-03-24T13:35:19.459Z,98935.53
2023-03-24T13:37:51.868Z,98895.72
2023-03-24T13:40:26.462Z,98896.56
2023-03-24T13:42:57.040Z,98897.53
2023-03-24T13:45:32.627Z,98866.47
2023-03-24T13:48:19.303Z,98868.16
2023-03-24T13:50:59.012Z,98831.19
2023-03-24T13:53:37.855Z,98854.31
2023-03-24T13:56:10.020Z,98847.50
2023-03-24T13:59:11.340Z,98809.63
2023-03-24T14:01:40.886Z,98782.88
2023-03-24T14:04:29.740Z,98768.97
2023-03-24T14:06:59.757Z,98750.03
2023-03-24T14:09:29.380Z,98728.56
2023-03-24T14:12:19.557Z,98709.63
2023-03-24T14:15:17.810Z,98705.19
2023-03-24T14:17:48.161Z,98702.81
2023-03-24T14:20:36.132Z,98675.00
2023-03-24T14:23:05.273Z,98701.84
2023-03-24T14:25:34.315Z,98690.59
2023-03-24T14:28:20.962Z,98669.97
2023-03-24T14:31:04.249Z,98663.03
2023-03-24T14:33:32.273Z,98673.47
2023-03-24T14:36:06.351Z,98705.19
2023-03-24T14:38:37.841Z,98726.75
2023-03-24T14:41:13.971Z,98747.50
2023-03-24T14:43:58.416Z,98775.91
2023-03-24T14:46:44.760Z,98753.50
2023-03-24T14:49:24.674Z,98770.88
2023-03-24T14:52:04.881Z,98771.84
2023-03-24T14:54:39.557Z,98785.50
2023-03-24T14:57:08.810Z,98746.69
2023-03-24T14:59:46.700Z,98707.00
2023-03-24T15:02:35.891Z,98710.47
2023-03-24T15:05:20.512Z,98682.22
2023-03-24T15:08:04.673Z,98700.16
2023-03-24T15:10:40.568Z,98670.94
2023-03-24T15:13:29.309Z,98642.44
2023-03-24T15:15:59.969Z,98650.09
2023-03-24T15:18:28.449Z,98673.47
2023-03-24T15:20:56.281Z,98681.25
2023-03-24T15:23:28.140Z,98668.56
2023-03-24T15:25:56.627Z,98695.16
2023-03-24T15:28:27.836Z,98664.97
2023-03-24T15:30:59.722Z,98633.06
2023-03-24T15:33:30.912Z,98627.09
2023-03-24T15:36:00.940Z,98621.09
2023-03-24T15:38:30.763Z,98624.47
2023-03-24T15:41:02.143Z,98589.53
2023-03-24T15:43:31.144Z,98579.69
2023-03-24T15:46:11.748Z,98589.13
2023-03-24T15:49:06.465Z,98586.63
2023-03-24T15:51:50.973Z,98598.59
2023-03-24T15:54:24.142Z,98573.81
2023-03-24T15:57:13.822Z,98572.03
2023-03-24T15:59:46.863Z,98581.75
2023-03-24T16:02:25.581Z,98580.66
2023-03-24T16:05:10.688Z,98571.31
2023-03-24T16:07:40.828Z,98581.59
2023-03-24T16:10:29.057Z,98558.16
2023-03-24T16:12:56.876Z,98597.19
2023-03-24T16:15:24.749Z,98584.13
2023-03-24T16:17:54.140Z,98574.66
2023-03-24T16:20:23.352Z,98598.84
2023-03-24T16:22:51.220Z,98582.44
2023-03-24T16:25:19.105Z,98579.09
2023-03-24T16:27:46.898Z,98595.50
2023-03-24T16:30:21.773Z,98554.34
2023-03-24T16:32:49.613Z,98543.78
2023-03-24T16:35:18.857Z,98521.50
2023-03-24T16:37:47.098Z,98519.84
2023-03-24T16:40:41.639Z,98530.13
2023-03-24T16:43:09.627Z,98550.75
2023-03-24T16:45:37.389Z,98557.69
2023-03-24T16:48:05.727Z,98538.75
2023-03-24T16:50:37.584Z,98562.94
2023-03-24T16:53:05.728Z,98532.75
2023-03-24T16:55:33.658Z,98556.84
2023-03-24T16:58:01.468Z,98576.59
2023-03-24T17:00:30.037Z,98556.97
2023-03-24T17:02:59.711Z,98573.25
2023-03-24T17:05:30.205Z,98575.75
2023-03-24T17:07:59.593Z,98579.34
2023-03-24T17:10:28.475Z,98598.25
2023-03-24T17:12:57.738Z,98609.41
2023-03-24T17:15:27.583Z,98656.09
2023-03-24T17:17:56.176Z,98648.91
2023-03-24T17:20:26.520Z,98685.34
2023-03-24T17:22:56.935Z,98687.97
2023-03-24T17:25:29.263Z,98708.44
2023-03-24T17:27:58.180Z,98729.91
2023-03-24T17:30:27.957Z,98781.06
2023-03-24T17:32:55.770Z,98797.28
2023-03-24T17:35:25.101Z,98842.97
2023-03-24T17:37:52.873Z,98856.03
2023-03-24T17:40:21.789Z,98841.41
2023-03-24T17:42:51.033Z,98876.66
2023-03-24T17:45:20.345Z,98894.66
2023-03-24T17:47:48.223Z,98933.88
2023-03-24T17:50:15.968Z,98954.41
2023-03-24T17:52:46.751Z,98959.56
2023-03-24T17:55:16.392Z,98985.59
2023-03-24T17:57:44.684Z,98951.03
2023-03-24T18:00:16.375Z,98972.63
2023-03-24T18:02:44.993Z,99001.06
2023-03-24T18:05:13.523Z,98984.75
2023-03-24T18:07:41.634Z,98995.91
2023-03-24T18:10:10.619Z,99014.38
2023-03-24T18:12:38.484Z,99020.97
2023-03-24T18:15:07.741Z,99031.47
2023-03-24T18:17:37.251Z,99033.25
2023-03-24T18:20:10.845Z,99039.25
2023-03-24T18:22:40.884Z,99051.38
2023-03-24T18:25:10.160Z,99069.50
2023-03-24T18:27:38.923Z,99084.25
2023-03-24T18:30:09.314Z,99099.63
2023-03-24T18:32:39.280Z,99117.03
2023-03-24T18:35:08.832Z,99109.25
2023-03-24T18:37:36.922Z,99124.72
2023-03-24T18:40:08.555Z,99127.25
2023-03-24T18:42:37.068Z,99142.84
2023-03-24T18:45:05.657Z,99130.84
2023-03-24T18:47:33.635Z,99152.50
2023-03-24T18:50:02.931Z,99181.06
2023-03-24T18:52:30.850Z,99185.41
2023-03-24T18:54:59.576Z,99177.59
2023-03-24T18:57:27.412Z,99182.03
2023-03-24T18:59:55.286Z,99203.66
2023-03-24T19:02:23.048Z,99208.69
2023-03-24T19:04:50.862Z,99196.69
2023-03-24T19:07:26.359Z,99201.72
2023-03-24T19:09:54.366Z,99217.34
2023-03-24T19:12:22.154Z,99218.31
2023-03-24T19:14:50.728Z,99207.03
2023-03-24T19:17:18.480Z,99212.31
2023-03-24T19:19:46.310Z,99221.69
2023-03-24T19:22:16.341Z,99215.53
2023-03-24T19:24:45.591Z,99212.31
2023-03-24T19:27:13.635Z,99210.63
2023-03-24T19:29:41.691Z,99188.03
2023-03-24T19:32:09.444Z,99192.47
2023-03-24T19:34:37.168Z,99189.00
2023-03-24T19:37:05.596Z,99169.28
2023-03-24T19:39:34.429Z,99172.66
2023-03-24T19:42:07.677Z,99155.47
2023-03-24T19:44:35.849Z,99148.38
2023-03-24T19:47:03.802Z,99150.06
2023-03-24T19:49:32.291Z,99130.38
2023-03-24T19:52:01.525Z,99122.69
2023-03-24T19:54:29.222Z,99107.91
2023-03-24T19:56:57.078Z,99099.28
2023-03-24T19:59:26.404Z,99100.22
2023-03-24T20:01:54.224Z,99090.88
2023-03-24T20:04:22.168Z,99073.47
2023-03-24T20:06:49.890Z,99062.31
2023-03-24T20:09:17.822Z,99066.63
2023-03-24T20:11:45.707Z,99071.91
2023-03-24T20:14:13.541Z,99054.47
2023-03-24T20:16:42.781Z,99046.78
2023-03-24T20:19:10.577Z,99021.72
2023-03-24T20:21:38.460Z,99015.84
2023-03-24T20:24:06.569Z,99010.56
2023-03-24T20:26:34.466Z,99001.19
2023-03-24T20:29:02.622Z,98983.44
2023-03-24T20:31:30.568Z,98989.91
2023-03-24T20:33:59.785Z,98991.59
2023-03-24T20:36:27.582Z,99002.16
2023-03-24T20:38:59.348Z,98975.28
2023-03-24T20:41:27.517Z,98957.75
2023-03-24T20:43:55.476Z,98972.66
2023-03-24T20:46:23.517Z,98964.25
2023-03-24T20:48:51.503Z,98946.00
2023-03-24T20:51:20.725Z,98927.16
2023-03-24T20:53:49.891Z,98910.72
2023-03-24T20:56:18.936Z,98871.97
2023-03-24T20:58:47.026Z,98844.38
2023-03-24T21:01:20.512Z,98832.16
2023-03-24T21:03:48.804Z,98824.34
2023-03-24T21:06:17.388Z,98814.06
2023-03-24T21:08:46.528Z,98816.69
2023-03-24T21:11:14.762Z,98800.97
2023-03-24T21:13:42.493Z,98774.25
2023-03-24T21:16:12.678Z,98780.38
2023-03-24T21:18:42.660Z,98760.59
2023-03-24T21:21:12.336Z,98727.28
2023-03-24T21:23:41.488Z,98708.81
2023-03-24T21:26:13.468Z,98724.41
2023-03-24T21:28:43.300Z,98705.47
2023-03-24T21:31:12.809Z,98667.63
2023-03-24T21:33:43.327Z,98640.09
2023-03-24T21:36:11.917Z,98603.09
2023-03-24T21:38:40.072Z,98560.00
2023-03-24T21:41:08.667Z,98522.19
2023-03-24T21:43:40.507Z,98494.66
2023-03-24T21:46:14.968Z,98458.53
2023-03-24T21:48:50.092Z,98456.00
2023-03-24T21:51:20.288Z,98429.34
2023-03-24T21:53:48.780Z,98415.59
2023-03-24T21:56:16.588Z,98384.03
2023-03-24T21:58:46.383Z,98366.81
2023-03-24T22:01:14.689Z,98346.88
2023-03-24T22:03:42.526Z,98332.13
2023-03-24T22:06:11.478Z,98335.72
2023-03-24T22:08:43.529Z,98297.00
2023-03-24T22:11:15.379Z,98304.66
2023-03-24T22:13:43.394Z,98299.63
2023-03-24T22:16:12.652Z,98274.63
2023-03-24T22:18:40.472Z,98248.25
2023-03-24T22:21:10.571Z,98205.00
2023-03-24T22:23:40.548Z,98177.78
2023-03-24T22:26:11.725Z,98138.13
2023-03-24T22:28:39.931Z,98092.63
2023-03-24T22:31:10.483Z,98057.44
2023-03-24T22:33:39.973Z,98030.94
2023-03-24T22:36:08.980Z,98016.25
2023-03-24T22:38:37.003Z,98009.44
2023-03-24T22:41:07.176Z,98016.38
2023-03-24T22:43:36.346Z,98000.88
2023-03-24T22:46:04.755Z,98012.91
2023-03-24T22:48:32.606Z,98016.38
2023-03-24T22:51:02.268Z,98019.72
2023-03-24T22:53:31.163Z,97986.72
2023-03-24T22:55:59.012Z,97995.88
2023-03-24T22:58:27.023Z,98024.97
2023-03-24T23:00:56.800Z,98012.91
2023-03-24T23:03:24.770Z,98014.59
2023-03-24T23:05:52.819Z,98009.97
2023-03-24T23:08:22.182Z,98005.28
2023-03-24T23:10:50.268Z,97977.03
2023-03-24T23:13:18.032Z,97942.66
2023-03-24T23:15:48.465Z,97886.84
2023-03-24T23:18:16.811Z,97845.88
2023-03-24T23:20:44.761Z,97823.56
2023-03-24T23:23:13.419Z,97793.53
2023-03-24T23:25:44.077Z,97780.66
2023-03-24T23:28:12.746Z,97756.16
2023-03-24T23:30:41.234Z,97737.22
2023-03-24T23:33:14.653Z,97692.38
2023-03-24T23:35:42.707Z,97674.28
2023-03-24T23:38:10.549Z,97663.34
2023-03-24T23:40:38.430Z,97661.00
2023-03-24T23:43:07.512Z,97664.31
2023-03-24T23:45:35.382Z,97623.38
2023-03-24T23:48:03.425Z,97582.31
2023-03-24T23:50:31.188Z,97544.72
2023-03-24T23:52:59.236Z,97481.56
2023-03-24T23:55:28.090Z,97455.59
2023-03-24T23:57:56.529Z,97398.94
